ADDS METAR Data INFO
IDs: Format: Raw Decoded Include TAF

Data at: 1834 UTC 16 Dec 2017

KMLP 161753Z AUTO VRB04KT 1/4SM HZ VV001 M07/M10 A3001 RMK AO2 SLP220 60000 T10671100 11067 21078 53016 TSNO
KMLP 161653Z AUTO VRB04KT 1/4SM HZ VV001 M07/M10 A2998 RMK AO2 SLP211 T10721100 TSNO
KMLP 161553Z AUTO VRB04KT 3/4SM HZ VV001 M08/M11 A2996 RMK AO2 VIS 1/2V1 1/2 SLP207 T10781106 TSNO
KMLP 161535Z AUTO VRB04KT 3/4SM HZ VV001 M08/M11 A2996 RMK AO2 T10781106 TSNO
KMLP 161525Z AUTO 32005KT 1SM HZ VV001 M08/M11 A2996 RMK AO2 T10781106 TSNO
KMLP 161504Z AUTO 33004KT 1 1/2SM HZ OVC001 M08/M11 A2995 RMK AO2 VIS 1V3 T10781106 TSNO
KMLP 161453Z AUTO 33004KT 1SM HZ VV001 M07/M10 A2995 RMK AO2 SLP200 60000 T10721100 51009 TSNO
KMLP 161451Z AUTO 33004KT 1SM HZ VV001 M07/M10 A2995 RMK AO2 TSNO
KMLP 161422Z AUTO 33003KT 3/4SM BR VV001 M08/M10 A2994 RMK AO2 T10781100 TSNO
KMLP 161353Z AUTO 33004KT 1 1/4SM BR OVC001 M08/M10 A2994 RMK AO2 SNE1258 SLP198 P0000 T10781100 TSNO
KMLP 161338Z AUTO 33004KT 2SM HZ OVC001 M08/M11 A2993 RMK AO2 VIS 1V4 SNE1258 P0000 T10781106 TSNO
KMLP 161328Z AUTO 33004KT 1 1/4SM HZ OVC001 M08/M11 A2993 RMK AO2 VIS 3/4V4 SNE1258 P0000 T10781106 TSNO
KMLP 161253Z AUTO 33003KT 2SM -SN OVC001 M07/M10 A2992 RMK AO2 VIS 1 1/4V4 SNB01 SLP188 P0000 T10721100 TSNO
KMLP 161208Z AUTO 32003KT 2SM -SN BR OVC001 M07/M09 A2992 RMK AO2 VIS 3/4V4 SNB01 P0000 T10721094 TSNO
KMLP 161153Z AUTO VRB03KT 4SM HZ OVC001 M07/M10 A2992 RMK AO2 SNB1056E18 SLP184 P0000 60002 70027 T10721100 11061 21072 53003 TSNO
KMLP 161121Z AUTO 34004KT 4SM BR OVC003 M07/M09 A2991 RMK AO2 SNB1056E18 P0000 T10671089 TSNO
KMLP 161106Z AUTO 33004KT 3SM -SN BR OVC001 M07/M09 A2991 RMK AO2 SNB1056 P0000 T10671089 TSNO
KMLP 161100Z AUTO 33004KT 2SM -SN BR OVC002 M07/M09 A2991 RMK AO2 VIS 1 1/4V5 SNB1056 P0000 T10671089 TSNO
KMLP 161053Z AUTO 34004KT 3SM BR OVC002 M07/M09 A2992 RMK AO2 SNE07B19E52 SLP181 P0000 T10671089 TSNO
KMLP 161041Z AUTO 33004KT 3SM -SN BR OVC002 M07/M09 A2991 RMK AO2 SNE07B19 P0000 T10671089 TSNO
KMLP 161032Z AUTO VRB04KT 2SM -SN BR OVC004 M07/M09 A2991 RMK AO2 SNE07B19 P0000 T10671089 TSNO
KMLP 161025Z AUTO 33003KT 1 1/2SM -SN BR OVC005 M07/M09 A2991 RMK AO2 VIS 3/4V2 1/2 SNE07B19 P0000 T10671089 TSNO
KMLP 161015Z AUTO 31003KT 2SM BR OVC005 M07/M09 A2991 RMK AO2 VIS 1 1/4V4 SNE07 P0000 T10671089 TSNO
KMLP 161004Z AUTO 32004KT 3SM -SN BR OVC005 M07/M09 A2991 RMK AO2 P0000 T10671089 TSNO
KMLP 160953Z AUTO 33005KT 2SM -SN OVC004 M06/M09 A2990 RMK AO2 VIS 1V3 SLP176 P0001 T10611089 TSNO
KMLP 160951Z AUTO 33004KT 1 3/4SM -SN BR OVC004 M06/M08 A2991 RMK AO2 VIS 1V3 P0001 TSNO
KMLP 160928Z AUTO VRB03KT 2SM -SN BR OVC003 M06/M08 A2990 RMK AO2 VIS 1 1/2V4 P0001 T10611083 TSNO
KMLP 160916Z AUTO 00000KT 3SM -SN BR OVC003 M06/M08 A2990 RMK AO2 P0001 T10611083 TSNO
KMLP 160909Z AUTO 33003KT 2 1/2SM -SN BR OVC003 M07/M08 A2990 RMK AO2 VIS 1 3/4V4 P0000 T10671083 TSNO
KMLP 160902Z AUTO 32003KT 2 1/2SM -SN BR OVC001 M07/M08 A2990 RMK AO2 VIS 1 3/4V3 P0000 T10671083 TSNO
KMLP 160853Z AUTO VRB03KT 1 3/4SM -SN BR OVC001 M06/M08 A2989 RMK AO2 SLP169 P0000 60001 T10611083 55000 TSNO
KMLP 160848Z AUTO VRB03KT 2SM -SN BR OVC001 M07/M08 A2989 RMK AO2 P0000 TSNO
KMLP 160839Z AUTO 33004KT 1 3/4SM -SN BR OVC001 M07/M08 A2989 RMK AO2 P0000 T10671083 TSNO
KMLP 160804Z AUTO 33004KT 1SM -SN BR VV001 M06/M08 A2989 RMK AO2 P0000 T10611083 TSNO
KMLP 160753Z AUTO 32004KT 1 1/2SM -SN BR OVC001 M06/M08 A2989 RMK AO2 VIS 1 1/4V2 1/2 SLP169 P0001 T10611078 410221072 TSNO
KMLP 160749Z AUTO 32004KT 1 3/4SM -SN BR OVC001 M06/M08 A2989 RMK AO2 VIS 1 1/4V2 1/2 P0001 TSNO
KMLP 160653Z AUTO 32003KT 1SM -SN BR VV001 M07/M08 A2989 RMK AO2 SNB22 SLP166 P0000 T10671078 TSNO
KMLP 160630Z AUTO 32004KT 1 3/4SM -SN BR OVC001 M07/M08 A2990 RMK AO2 VIS 1V3 SNB22 P0000 T10671078 TSNO
KMLP 160553Z AUTO 31003KT 9SM BKN001 OVC006 M07/M08 A2988 RMK AO2 SNB11E29 SLP163 P0000 60001 T10671078 11056 21072 58003 TSNO
KMLP 160542Z AUTO VRB03KT 5SM BR BKN001 OVC015 M07/M08 A2988 RMK AO2 SNB11E29 P0000 T10671083 TSNO
KMLP 160504Z AUTO VRB03KT 10SM SCT002 BKN031 OVC075 M07/M08 A2989 RMK AO2 T10671078 TSNO
KMLP 160501Z AUTO VRB03KT 10SM BKN002 BKN026 OVC075 M07/M08 A2988 RMK AO2 T10671078 TSNO
KMLP 160453Z AUTO VRB03KT 10SM SCT001 BKN017 OVC080 M07/M07 A2989 RMK AO2 SLP165 T10671072 TSNO
KMLP 160446Z AUTO 00000KT 10SM FEW001 BKN011 OVC075 M07/M07 A2989 RMK AO2 T10671072 TSNO
KMLP 160438Z AUTO 23006KT 4SM BR BKN001 BKN009 OVC080 M07/M08 A2989 RMK AO2 T10671078 TSNO
KMLP 160423Z AUTO 00000KT 6SM BR BKN003 BKN008 OVC060 M07/M08 A2989 RMK AO2 T10671078 TSNO
KMLP 160418Z AUTO 00000KT 8SM FEW001 BKN010 OVC060 M07/M08 A2989 RMK AO2 T10671078 TSNO
KMLP 160353Z AUTO 19003KT 10SM FEW011 BKN060 OVC100 M07/M07 A2989 RMK AO2 SNE11 SLP166 P0000 T10671072 TSNO
KMLP 160351Z AUTO VRB03KT 10SM SCT011 BKN060 OVC100 M07/M07 A2989 RMK AO2 SNE11 P0000 TSNO
KMLP 160330Z AUTO VRB03KT 10SM BKN011 BKN070 OVC090 M07/M07 A2989 RMK AO2 SNE11 P0000 T10671072 TSNO
KMLP 160312Z AUTO VRB04KT 8SM SCT011 OVC080 M07/M07 A2990 RMK AO2 SNE11 P0000 T10671072 TSNO
KMLP 160305Z AUTO VRB06KT 4SM -SN BR SCT009 BKN015 OVC080 M07/M07 A2990 RMK AO2 P0000 T10671072 TSNO
KMLP 160253Z AUTO 23006KT 4SM -SN BR SCT002 BKN009 OVC015 M07/M07 A2990 RMK AO2 SNB33 SLP170 P0000 60001 T10671072 52005 TSNO
KMLP 160250Z AUTO VRB06KT 3SM -SN BR SCT002 BKN009 OVC015 M07/M07 A2991 RMK AO2 SNB33 P0000 TSNO
KMLP 160247Z AUTO 24004KT 1 3/4SM -SN BR BKN002 BKN009 OVC015 M07/M07 A2991 RMK AO2 SNB33 P0000 TSNO
KMLP 160244Z AUTO 25004KT 3/4SM -SN BR BKN002 BKN009 OVC015 M07/M07 A2991 RMK AO2 SNB33 P0000 T10671072 TSNO
KMLP 160225Z AUTO 30003KT 3/4SM BR VV001 M07/M08 A2990 RMK AO2 T10721078 TSNO
KMLP 160213Z AUTO VRB03KT 1 1/4SM BR OVC001 M07/M08 A2990 RMK AO2 T10721078 TSNO
KMLP 160153Z AUTO VRB04KT 3/4SM BR VV001 M07/M07 A2990 RMK AO2 SNE10B25E46 SLP171 P0000 T10671072 TSNO
KMLP 160146Z AUTO 29004KT 3/4SM BR VV001 M07/M07 A2989 RMK AO2 SNE10B25E46 P0000 T10671072 TSNO
KMLP 160130Z AUTO VRB04KT 3/4SM -SN BR VV002 M07/M07 A2989 RMK AO2 SNE10B25 P0000 T10671072 TSNO
KMLP 160115Z AUTO VRB04KT 1SM BR VV003 M07/M07 A2989 RMK AO2 VIS 3/4V2 SNE10 P0000 T10671072 TSNO
KMLP 160108Z AUTO VRB03KT 3/4SM -SN BR VV002 M07/M07 A2989 RMK AO2 P0000 T10671072 TSNO
KMLP 160053Z AUTO VRB04KT 1/2SM -SN FZFG VV001 M07/M07 A2989 RMK AO2 SLP165 P0001 T10671072 TSNO
KMLP 160040Z AUTO VRB04KT 1/2SM -SN FZFG VV001 M07/M07 A2989 RMK AO2 P0001 T10671072 TSNO
KMLP 160032Z AUTO VRB03KT 1SM -SN BR VV001 M07/M07 A2989 RMK AO2 P0001 T10671072 TSNO
KMLP 152353Z AUTO VRB03KT 1/2SM -SN FZFG VV001 M06/M06 A2989 RMK AO2 SLP159 P0003 60024 T10561061 11028 21056 51002 TSNO
KMLP 152350Z AUTO 00000KT 1/2SM SN FZFG VV001 M06/M06 A2989 RMK AO2 P0003 TSNO
KMLP 152319Z AUTO VRB03KT 1/4SM -SN FZFG VV001 M06/M06 A2988 RMK AO2 P0001 T10561056 TSNO
KMLP 152253Z AUTO VRB04KT 3/4SM -SN BR VV002 M05/M06 A2988 RMK AO2 SLP156 P0003 T10501056 TSNO
KMLP 152214Z AUTO 00000KT 1/2SM SN FZFG VV003 M05/M06 A2988 RMK AO2 P0002 T10501056 TSNO
KMLP 152153Z AUTO VRB03KT 1/4SM SN FZFG VV005 M05/M06 A2988 RMK AO2 SLP159 P0007 T10501056 TSNO
KMLP 152151Z AUTO 00000KT 1/4SM SN FZFG VV005 M05/M06 A2988 RMK AO2 P0007 TSNO
KMLP 152133Z AUTO VRB03KT 1/4SM SN FZFG VV002 M04/M06 A2990 RMK AO2 P0005 T10441056 TSNO
KMLP 152053Z AUTO 33004KT 1/4SM SN FZFG VV001 M04/M05 A2990 RMK AO2 SLP160 P0009 60011 T10441050 56022 TSNO
KMLP 151953Z AUTO 25009G17KT 220V310 1/4SM SN FZFG BKN004 OVC008 M04/M04 A2992 RMK AO2 UPB26E35SNE17B35 SLP167 P0002 T10391044 TSNO
KMLP 151949Z AUTO VRB06KT 1/4SM SN FZFG BKN004 OVC008 M04/M04 A2992 RMK AO2 UPB26E35SNE17B35 P0001 TSNO
KMLP 151947Z AUTO 24007KT 220V280 1/2SM SN FZFG BKN004 OVC008 M04/M04 A2992 RMK AO2 UPB26E35SNE17B35 P0001 TSNO
KMLP 151941Z AUTO 00000KT 1 1/4SM -SN BR FEW003 OVC008 M03/M05 A2993 RMK AO2 UPB26E35SNE17B35 CIG 006V013 P0000 T10331050 TSNO
KMLP 151938Z AUTO VRB06KT 2 1/2SM -SN BR OVC008 M03/M05 A2993 RMK AO2 UPB26E35SNE17B35 CIG 006V013 P0000 T10331050 TSNO
KMLP 151924Z AUTO VRB04KT 10SM BKN010 BKN013 OVC030 M03/M05 A2993 RMK AO2 SNE17 P0000 T10281050 TSNO
KMLP 151915Z AUTO 27007G17KT 220V310 6SM -SN BR SCT010 BKN028 OVC032 M03/M05 A2993 RMK AO2 P0000 T10331050 TSNO
KMLP 151910Z AUTO 25009G17KT 2SM -SN BR FEW010 BKN030 OVC035 M03/M05 A2993 RMK AO2 P0000 T10331050 TSNO
KMLP 151906Z AUTO 23007KT 1SM -SN BR FEW010 SCT028 OVC033 M03/M05 A2992 RMK AO2 P0000 T10281050 TSNO
KMLP 151858Z AUTO 21008G17KT 170V280 1 3/4SM -SN FEW026 OVC033 M03/M06 A2993 RMK AO2 P0000 T10281056 TSNO
KMLP 151853Z AUTO 22007KT 190V250 8SM -SN OVC033 M03/M06 A2993 RMK AO2 UPB23E37SNB25E34B53 SLP168 P0000 T10281061 TSNO
KMLP 151753Z AUTO 24007KT 210V290 10SM BKN065 M02/M06 A2998 RMK AO2 SLP181 T10221061 11022 21033 58007 TSNO
KMLP 151653Z AUTO VRB06KT 10SM OVC050 M03/M06 A2999 RMK AO2 SLP192 T10281061 TSNO
KMLP 151553Z AUTO VRB05KT 10SM CLR M03/M06 A2999 RMK AO2 SLP190 T10281061 TSNO
KMLP 151453Z AUTO 24007KT 10SM CLR M03/M06 A3000 RMK AO2 SLP193 T10281061 58020 TSNO
KMLP 151353Z AUTO VRB05KT 10SM CLR M03/M06 A3004 RMK AO2 SLP209 T10331061 TSNO
KMLP 151253Z AUTO 22007G16KT 170V250 10SM CLR M03/M06 A3005 RMK AO2 SLP210 T10281061 TSNO
KMLP 151153Z AUTO 22008KT 10SM CLR M03/M06 A3007 RMK AO2 SLP218 T10281056 11022 21033 58018 TSNO
KMLP 151053Z AUTO VRB06KT 10SM CLR M03/M06 A3012 RMK AO2 SLP235 T10331056 TSNO
KMLP 150953Z AUTO 22008KT 10SM CLR M03/M06 A3012 RMK AO2 SLP234 T10281056 TSNO
KMLP 150853Z AUTO 22007KT 10SM CLR M03/M06 A3013 RMK AO2 SLP238 T10281056 56015 TSNO
KMLP 150753Z AUTO 23010G16KT 10SM CLR M03/M06 A3015 RMK AO2 SLP244 T10281056 400001072 TSNO
KMLP 150653Z AUTO 23006KT 10SM CLR M03/M06 A3017 RMK AO2 SLP252 T10281056 TSNO